Time;durP1;ratioP1;P1;durP2;ratioP2;P2;SDS_P1;SDS_P2;PMS_P1;PMS_P2;Temp;Humidity;BMP_temperature;BMP_pressure;BME280_temperature;BME280_humidity;BME280_pressure;Samples;Min_cycle;Max_cycle;Signal;HPM_P1;HPM_P2
2022/01/30 00:01:22;;;;;;;31.25;8.40;;;7.70;90.70;;;;;;6237754;23;20032;-60
2022/01/30 00:03:48;;;;;;;35.92;8.75;;;7.70;90.80;;;;;;6237943;23;20027;-62
2022/01/30 00:06:13;;;;;;;38.58;8.43;;;7.70;90.70;;;;;;6187869;23;20426;-61
2022/01/30 00:08:39;;;;;;;31.80;8.88;;;7.70;90.70;;;;;;6239527;23;20007;-62
2022/01/30 00:11:12;;;;;;;22.33;8.27;;;7.70;90.70;;;;;;6239739;23;20104;-60
2022/01/30 00:13:38;;;;;;;24.83;7.97;;;7.70;90.70;;;;;;6238020;23;20031;-63
2022/01/30 00:16:07;;;;;;;30.83;8.18;;;7.70;90.90;;;;;;6238055;23;20000;-63
2022/01/30 00:21:18;;;;;;;29.45;7.45;;;7.70;91.00;;;;;;6239977;23;20497;-62
2022/01/30 00:23:52;;;;;;;21.73;7.90;;;7.70;91.00;;;;;;6239255;23;20000;-61
2022/01/30 00:26:19;;;;;;;30.63;7.93;;;7.70;91.00;;;;;;6238499;23;20015;-62
2022/01/30 00:28:45;;;;;;;18.00;7.00;;;7.70;91.00;;;;;;6237731;23;20055;-61
2022/01/30 00:31:13;;;;;;;23.13;7.15;;;7.70;91.00;;;;;;6211974;23;20004;-63
2022/01/30 00:33:38;;;;;;;37.78;8.98;;;7.70;91.00;;;;;;6213134;23;20080;-61
2022/01/30 00:36:04;;;;;;;18.88;7.82;;;7.80;91.10;;;;;;6240060;23;20032;-60
2022/01/30 00:38:29;;;;;;;33.92;8.20;;;7.70;91.10;;;;;;6211387;23;20339;-63
2022/01/30 00:40:55;;;;;;;22.45;7.35;;;7.70;91.10;;;;;;6237410;23;20197;-61
2022/01/30 00:43:21;;;;;;;22.85;7.57;;;7.70;91.10;;;;;;6238285;23;20012;-62
2022/01/30 00:45:46;;;;;;;21.75;7.75;;;7.80;91.10;;;;;;6213323;23;20008;-63
2022/01/30 00:48:12;;;;;;;17.13;7.43;;;7.70;91.10;;;;;;6187544;23;20353;-61
2022/01/30 00:50:38;;;;;;;20.13;7.35;;;7.80;91.10;;;;;;6212560;23;20173;-61
2022/01/30 00:53:03;;;;;;;18.42;6.95;;;7.70;91.10;;;;;;6210090;23;20375;-60
2022/01/30 00:55:29;;;;;;;22.80;7.75;;;7.80;91.10;;;;;;6238678;23;20000;-64
2022/01/30 00:57:55;;;;;;;29.30;8.18;;;7.80;91.10;;;;;;6214975;23;20437;-64
2022/01/30 01:00:22;;;;;;;24.10;7.75;;;7.80;91.10;;;;;;6242072;23;20009;-63
2022/01/30 01:02:47;;;;;;;26.88;8.02;;;7.80;91.10;;;;;;6213659;23;20000;-61
2022/01/30 01:05:13;;;;;;;16.63;7.50;;;7.80;91.10;;;;;;6212898;23;20049;-60
2022/01/30 01:07:43;;;;;;;26.25;7.70;;;7.80;91.10;;;;;;6212568;23;20398;-60
2022/01/30 01:23:41;;;;;;;22.27;6.80;;;7.80;91.10;;;;;;6105347;23;20072;-64
2022/01/30 01:26:06;;;;;;;12.38;6.75;;;7.80;91.10;;;;;;6206678;23;20000;-63
2022/01/30 01:28:32;;;;;;;21.08;6.63;;;7.80;91.10;;;;;;6241777;23;20031;-62
2022/01/30 01:30:58;;;;;;;16.92;7.10;;;7.80;91.10;;;;;;6213601;23;20441;-63
2022/01/30 01:33:28;;;;;;;17.88;6.78;;;7.80;91.10;;;;;;6239163;23;20090;-64
2022/01/30 01:35:54;;;;;;;15.45;6.50;;;7.80;91.10;;;;;;6212730;23;20323;-61
2022/01/30 01:38:21;;;;;;;22.65;7.20;;;7.80;91.10;;;;;;6241034;23;20050;-62
2022/01/30 01:40:51;;;;;;;21.98;7.57;;;7.80;91.10;;;;;;6215207;23;19999;-63
2022/01/30 01:43:18;;;;;;;14.10;6.50;;;7.80;91.10;;;;;;6240940;23;20434;-62
2022/01/30 01:45:43;;;;;;;19.27;6.68;;;7.80;91.20;;;;;;6238867;23;20008;-63
2022/01/30 01:48:12;;;;;;;18.20;7.13;;;7.80;91.20;;;;;;6239385;23;20315;-63
2022/01/30 01:50:39;;;;;;;16.58;7.03;;;7.80;91.20;;;;;;6241217;23;20011;-60
2022/01/30 01:53:12;;;;;;;16.15;7.53;;;7.90;91.20;;;;;;6241047;23;20162;-63
2022/01/30 01:55:38;;;;;;;21.33;7.40;;;7.90;91.20;;;;;;6214232;23;20091;-60
2022/01/30 01:58:04;;;;;;;18.58;7.38;;;7.80;91.20;;;;;;6239355;23;20082;-63
2022/01/30 02:00:29;;;;;;;17.60;7.25;;;7.80;91.30;;;;;;6186959;23;20000;-61
2022/01/30 02:02:55;;;;;;;14.20;6.90;;;7.80;91.30;;;;;;6188303;23;20091;-63
2022/01/30 02:05:27;;;;;;;24.05;7.88;;;7.80;91.30;;;;;;6240745;23;20365;-61
2022/01/30 02:08:27;;;;;;;10.50;6.50;;;7.80;91.30;;;;;;6190845;23;20050;-62
2022/01/30 02:14:18;;;;;;;13.60;6.78;;;7.90;91.30;;;;;;6213485;23;20028;-62
2022/01/30 02:26:59;;;;;;;13.65;6.57;;;7.80;91.40;;;;;;6215437;23;19935;-61
2022/01/30 02:29:25;;;;;;;20.60;8.45;;;7.80;91.50;;;;;;6213941;23;20127;-62
2022/01/30 02:31:55;;;;;;;17.48;8.13;;;7.80;91.40;;;;;;6214729;23;20400;-62
2022/01/30 02:34:24;;;;;;;18.17;8.27;;;7.80;91.40;;;;;;6241217;23;20004;-63
2022/01/30 02:36:51;;;;;;;14.52;6.80;;;7.90;91.50;;;;;;6239155;23;20019;-62
2022/01/30 02:39:17;;;;;;;16.77;6.97;;;7.80;91.50;;;;;;6240558;23;19997;-63
2022/01/30 02:41:43;;;;;;;14.30;6.30;;;7.90;91.50;;;;;;6241925;23;20004;-62
2022/01/30 02:44:15;;;;;;;14.95;7.03;;;7.80;91.50;;;;;;6214212;23;20479;-62
2022/01/30 02:46:44;;;;;;;13.55;6.68;;;7.90;91.50;;;;;;6215632;23;20030;-63
2022/01/30 02:49:42;;;;;;;17.90;6.57;;;7.80;91.50;;;;;;6212988;23;20014;-62
2022/01/30 02:52:02;;;;;;;12.57;6.22;;;7.90;91.50;;;;;;6216942;23;20023;-61
2022/01/30 02:54:28;;;;;;;12.05;6.40;;;7.90;91.50;;;;;;6241577;23;20019;-62
2022/01/30 02:56:54;;;;;;;14.88;7.00;;;7.90;91.50;;;;;;6240545;23;20040;-63
2022/01/30 02:59:20;;;;;;;13.00;5.70;;;7.90;91.50;;;;;;6188646;23;20007;-61
2022/01/30 03:01:45;;;;;;;18.85;7.05;;;7.90;91.60;;;;;;6186601;23;20012;-62
2022/01/30 03:04:11;;;;;;;14.70;6.30;;;7.90;91.60;;;;;;6213628;23;20012;-64
2022/01/30 03:06:37;;;;;;;16.60;7.05;;;7.90;91.60;;;;;;6240932;23;20456;-64
2022/01/30 03:09:04;;;;;;;13.85;6.32;;;7.90;91.60;;;;;;6214433;23;20430;-63
2022/01/30 03:11:29;;;;;;;10.55;6.10;;;7.90;91.50;;;;;;6240993;23;20035;-61
2022/01/30 03:13:55;;;;;;;12.48;6.13;;;7.90;91.60;;;;;;6239210;23;20415;-61
2022/01/30 03:16:23;;;;;;;13.30;6.60;;;7.90;91.60;;;;;;6213493;23;20071;-61
2022/01/30 03:18:49;;;;;;;13.20;6.03;;;7.90;91.60;;;;;;6213867;23;20441;-63
2022/01/30 03:21:15;;;;;;;9.68;6.35;;;7.90;91.60;;;;;;6214051;23;20062;-63
2022/01/30 03:23:40;;;;;;;13.82;6.93;;;7.90;91.60;;;;;;6212886;23;20012;-62
2022/01/30 03:26:06;;;;;;;13.00;6.43;;;7.90;91.60;;;;;;6187536;23;20325;-63
2022/01/30 03:28:32;;;;;;;10.85;6.53;;;7.90;91.60;;;;;;6213981;23;20008;-62
2022/01/30 03:31:02;;;;;;;19.45;6.55;;;7.90;91.70;;;;;;6239979;23;20064;-63
2022/01/30 03:33:28;;;;;;;10.50;6.60;;;7.90;91.70;;;;;;6240743;23;19996;-61
2022/01/30 03:35:53;;;;;;;11.40;6.45;;;7.90;91.70;;;;;;6214383;23;20031;-61
2022/01/30 03:38:20;;;;;;;17.70;6.20;;;7.90;91.70;;;;;;6238741;23;19996;-62
2022/01/30 03:40:46;;;;;;;12.27;5.90;;;7.90;91.70;;;;;;6240516;23;20058;-62
2022/01/30 03:43:11;;;;;;;10.68;5.60;;;7.90;91.70;;;;;;6240350;23;20087;-63
2022/01/30 03:45:37;;;;;;;11.60;5.85;;;7.90;91.70;;;;;;6213456;23;20028;-63
2022/01/30 03:48:03;;;;;;;13.52;6.22;;;7.90;91.70;;;;;;6213761;23;20402;-61
2022/01/30 03:50:29;;;;;;;17.25;7.65;;;7.90;91.80;;;;;;6239736;23;20048;-62
2022/01/30 03:52:54;;;;;;;11.43;6.30;;;7.90;91.80;;;;;;6238315;23;20015;-62
2022/01/30 03:55:21;;;;;;;11.90;6.40;;;7.90;91.80;;;;;;6212672;23;20060;-62
2022/01/30 03:57:46;;;;;;;89.82;11.80;;;7.90;91.80;;;;;;6189004;23;20012;-62
2022/01/30 04:00:12;;;;;;;52.80;10.85;;;7.90;91.80;;;;;;6240523;23;20026;-61
2022/01/30 04:02:37;;;;;;;87.05;11.40;;;7.90;91.80;;;;;;6212055;23;20413;-61
2022/01/30 04:05:03;;;;;;;54.55;9.70;;;7.90;91.80;;;;;;6239199;23;20004;-60
2022/01/30 04:07:31;;;;;;;255.95;25.45;;;7.90;91.90;;;;;;6240400;23;20008;-63
2022/01/30 04:09:56;;;;;;;125.25;15.85;;;7.90;91.80;;;;;;6213596;23;20084;-63
2022/01/30 04:12:22;;;;;;;91.03;12.40;;;8.00;91.90;;;;;;6241193;23;20441;-61
2022/01/30 04:14:48;;;;;;;92.78;12.38;;;7.90;91.90;;;;;;6239724;23;20015;-62
2022/01/30 04:17:13;;;;;;;84.85;11.35;;;8.00;91.90;;;;;;6237780;23;20001;-63
2022/01/30 04:19:39;;;;;;;115.85;12.43;;;7.90;91.90;;;;;;6188877;23;20355;-63
2022/01/30 04:22:05;;;;;;;79.72;10.52;;;8.00;91.90;;;;;;6213070;23;20010;-61
2022/01/30 04:24:30;;;;;;;82.35;10.43;;;8.00;91.90;;;;;;6240392;23;20005;-64
2022/01/30 04:26:56;;;;;;;77.10;9.73;;;7.90;91.80;;;;;;6213957;23;20480;-60
2022/01/30 04:29:22;;;;;;;72.40;10.02;;;8.00;91.90;;;;;;6238704;23;20425;-62
2022/01/30 04:31:50;;;;;;;75.65;10.95;;;7.90;91.90;;;;;;6242409;23;20027;-62
2022/01/30 04:34:16;;;;;;;73.40;10.85;;;7.90;91.90;;;;;;6215972;23;20000;-63
2022/01/30 04:36:56;;;;;;;82.40;11.48;;;8.00;91.90;;;;;;6190399;23;20004;-60
2022/01/30 05:00:18;;;;;;;51.03;9.25;;;8.00;91.90;;;;;;6210680;23;20005;-60
2022/01/30 05:02:59;;;;;;;47.22;8.55;;;8.00;91.90;;;;;;6211211;23;20115;-62
2022/01/30 05:05:38;;;;;;;48.50;8.32;;;8.00;91.90;;;;;;6210975;23;20027;-62
2022/01/30 05:08:05;;;;;;;65.40;9.10;;;8.00;91.90;;;;;;6186726;23;20005;-63
2022/01/30 05:10:31;;;;;;;36.75;7.75;;;8.00;91.90;;;;;;6212180;23;20012;-62
2022/01/30 05:12:58;;;;;;;48.75;7.90;;;8.00;91.90;;;;;;6210513;23;20453;-62
2022/01/30 05:15:27;;;;;;;47.83;8.07;;;8.00;91.90;;;;;;6211133;23;20027;-63
2022/01/30 05:17:53;;;;;;;40.35;7.70;;;8.00;91.90;;;;;;6210365;23;20000;-63
2022/01/30 05:20:18;;;;;;;58.30;7.72;;;8.00;91.90;;;;;;6210973;23;20423;-62
2022/01/30 05:22:44;;;;;;;45.25;8.27;;;8.00;91.90;;;;;;6209733;23;20009;-65
2022/01/30 05:25:10;;;;;;;39.70;7.28;;;8.00;91.90;;;;;;6211471;23;20141;-62
2022/01/30 05:27:36;;;;;;;40.03;8.10;;;8.00;91.90;;;;;;6211679;23;20008;-61
2022/01/30 05:30:02;;;;;;;50.83;8.80;;;8.00;92.20;;;;;;6210981;23;20075;-61
2022/01/30 05:32:28;;;;;;;48.60;8.75;;;8.00;91.90;;;;;;6208059;23;20399;-61
2022/01/30 05:34:55;;;;;;;39.35;7.65;;;8.00;91.90;;;;;;6211009;23;20012;-64
2022/01/30 05:37:21;;;;;;;38.30;7.40;;;8.00;91.90;;;;;;6210715;23;20081;-60
2022/01/30 05:39:47;;;;;;;45.58;8.10;;;8.00;91.90;;;;;;6210359;23;20028;-60
2022/01/30 05:42:13;;;;;;;42.70;8.43;;;8.00;91.90;;;;;;6209825;23;20009;-61
2022/01/30 05:44:55;;;;;;;38.88;7.55;;;8.00;91.80;;;;;;6207408;23;20087;-63
2022/01/30 05:47:26;;;;;;;42.00;8.07;;;8.00;91.90;;;;;;6187845;23;20015;-62
2022/01/30 05:49:51;;;;;;;37.15;7.05;;;8.00;91.90;;;;;;6185922;23;20063;-62
2022/01/30 05:52:17;;;;;;;46.47;7.00;;;8.00;91.90;;;;;;6211123;23;20004;-61
2022/01/30 05:54:42;;;;;;;27.85;7.10;;;8.00;91.90;;;;;;6209132;23;20005;-64
2022/01/30 05:57:08;;;;;;;38.58;6.90;;;8.00;91.80;;;;;;6206294;23;20019;-60
2022/01/30 05:59:34;;;;;;;37.03;6.70;;;8.00;91.80;;;;;;6209818;23;20330;-62
2022/01/30 06:01:59;;;;;;;35.65;7.13;;;8.00;91.90;;;;;;6209894;23;20009;-63
2022/01/30 06:04:25;;;;;;;31.55;6.45;;;8.00;91.80;;;;;;6210170;23;20009;-63
2022/01/30 06:06:52;;;;;;;27.75;6.07;;;8.00;92.10;;;;;;6207415;23;20330;-63
2022/01/30 06:09:19;;;;;;;27.10;6.20;;;8.00;91.80;;;;;;6207933;23;20009;-63
2022/01/30 06:11:47;;;;;;;31.48;6.32;;;8.00;91.80;;;;;;6183355;23;20016;-63
2022/01/30 06:14:13;;;;;;;28.10;6.07;;;8.00;91.80;;;;;;6183706;23;20011;-63
2022/01/30 06:16:38;;;;;;;24.25;6.05;;;8.00;91.80;;;;;;6208031;23;20005;-62
2022/01/30 06:19:04;;;;;;;31.30;5.97;;;8.00;91.80;;;;;;6207635;23;20004;-61
2022/01/30 06:21:29;;;;;;;22.25;5.65;;;8.00;91.90;;;;;;6207276;23;20008;-60
2022/01/30 06:23:55;;;;;;;24.88;6.18;;;8.00;91.90;;;;;;6206930;23;20004;-63
2022/01/30 06:26:20;;;;;;;32.28;6.63;;;8.00;91.80;;;;;;6204181;23;20067;-64
2022/01/30 06:28:46;;;;;;;31.95;6.75;;;8.00;91.80;;;;;;6206835;23;20059;-61
2022/01/30 06:31:12;;;;;;;20.67;5.35;;;8.10;91.80;;;;;;6209719;23;20071;-62
2022/01/30 06:33:37;;;;;;;27.52;6.68;;;8.00;91.80;;;;;;6206215;23;20356;-61
2022/01/30 06:36:03;;;;;;;33.83;6.78;;;8.00;91.80;;;;;;6206413;23;20347;-61
2022/01/30 06:38:28;;;;;;;26.98;6.43;;;8.10;91.80;;;;;;6205043;23;20001;-63
2022/01/30 06:40:54;;;;;;;26.27;6.15;;;8.10;91.80;;;;;;6183377;23;20043;-63
2022/01/30 06:43:19;;;;;;;26.58;5.45;;;8.10;91.80;;;;;;6210070;23;20031;-61
2022/01/30 06:45:47;;;;;;;18.33;5.30;;;8.10;91.80;;;;;;6208481;23;20007;-61
2022/01/30 06:48:15;;;;;;;19.85;5.32;;;8.10;91.80;;;;;;6206742;23;20080;-61
2022/01/30 06:50:41;;;;;;;26.90;5.20;;;8.10;91.70;;;;;;6207882;23;20091;-61
2022/01/30 06:53:06;;;;;;;17.58;5.00;;;8.10;91.70;;;;;;6208010;23;20035;-64
2022/01/30 06:55:32;;;;;;;23.30;5.35;;;8.10;91.80;;;;;;6141567;23;1029773;-63
2022/01/30 06:57:57;;;;;;;35.30;6.43;;;8.10;91.80;;;;;;6241508;23;20480;-63
2022/01/30 07:00:23;;;;;;;22.75;5.82;;;8.10;91.70;;;;;;6239822;23;20426;-64
2022/01/30 07:02:48;;;;;;;32.40;5.82;;;8.10;91.70;;;;;;6237648;23;20004;-61
2022/01/30 07:05:14;;;;;;;38.47;6.25;;;7.90;91.70;;;;;;6241079;23;20004;-61
2022/01/30 07:07:41;;;;;;;44.38;5.78;;;8.10;91.80;;;;;;6240484;23;20008;-61
2022/01/30 07:10:07;;;;;;;22.35;5.07;;;8.10;91.80;;;;;;6214140;23;20015;-63
2022/01/30 07:12:33;;;;;;;19.95;5.30;;;8.10;91.80;;;;;;6213057;23;20444;-62
2022/01/30 07:14:58;;;;;;;27.83;6.30;;;8.10;91.70;;;;;;6213089;23;19992;-60
2022/01/30 07:17:24;;;;;;;31.45;4.78;;;8.10;91.80;;;;;;6240273;23;20000;-62
2022/01/30 07:19:49;;;;;;;23.60;5.43;;;8.10;91.80;;;;;;6238131;23;20032;-61
2022/01/30 07:22:15;;;;;;;18.02;4.63;;;8.10;91.80;;;;;;6212785;23;20053;-61
2022/01/30 07:24:40;;;;;;;26.73;4.85;;;8.10;92.10;;;;;;6212600;23;20468;-63
2022/01/30 07:27:06;;;;;;;28.70;5.47;;;8.00;92.10;;;;;;6212826;23;20039;-61
2022/01/30 07:29:31;;;;;;;25.02;5.38;;;8.10;91.90;;;;;;6240301;23;20008;-64
2022/01/30 07:31:57;;;;;;;20.48;4.82;;;8.10;91.90;;;;;;6187881;23;20132;-63
2022/01/30 07:34:22;;;;;;;37.63;5.75;;;8.10;91.80;;;;;;6240000;23;20504;-64
2022/01/30 07:36:48;;;;;;;25.33;5.47;;;8.10;91.80;;;;;;6239647;23;20126;-62
2022/01/30 07:39:16;;;;;;;29.45;5.35;;;8.10;91.90;;;;;;6185585;23;20031;-63
2022/01/30 07:41:45;;;;;;;15.70;4.55;;;8.00;91.90;;;;;;6237922;23;20023;-62
2022/01/30 07:44:10;;;;;;;21.52;5.50;;;8.10;91.90;;;;;;6188410;23;20018;-60
2022/01/30 07:46:36;;;;;;;23.15;5.05;;;8.00;91.90;;;;;;6213700;23;20091;-63
2022/01/30 07:49:01;;;;;;;16.88;5.60;;;8.10;91.90;;;;;;6213297;23;20004;-61
2022/01/30 07:51:27;;;;;;;36.60;5.90;;;8.10;91.90;;;;;;6211939;23;20004;-64
2022/01/30 07:53:52;;;;;;;27.40;6.05;;;8.10;91.90;;;;;;6237519;23;20452;-60
2022/01/30 07:56:18;;;;;;;23.77;5.38;;;8.10;91.90;;;;;;6207713;23;20039;-63
2022/01/30 07:58:43;;;;;;;21.40;4.85;;;8.10;91.90;;;;;;6210193;23;20086;-61
2022/01/30 08:01:09;;;;;;;14.45;4.20;;;8.20;91.90;;;;;;6208500;23;20074;-62
2022/01/30 08:03:34;;;;;;;19.67;4.85;;;8.10;91.90;;;;;;6208283;23;20451;-64
2022/01/30 08:06:00;;;;;;;15.13;4.72;;;8.10;91.90;;;;;;6207742;23;20083;-62
2022/01/30 08:08:25;;;;;;;19.92;4.85;;;8.10;91.90;;;;;;6207247;23;20015;-62
2022/01/30 08:10:51;;;;;;;18.23;5.25;;;8.10;91.90;;;;;;6210464;23;20001;-63
2022/01/30 08:13:16;;;;;;;12.13;4.22;;;8.10;91.90;;;;;;6210638;23;20001;-63
2022/01/30 08:15:43;;;;;;;15.98;5.03;;;8.10;91.90;;;;;;6209619;23;20031;-63
2022/01/30 08:18:09;;;;;;;14.55;4.57;;;8.10;91.90;;;;;;6205473;23;20027;-64
2022/01/30 08:20:34;;;;;;;14.05;4.57;;;8.10;91.90;;;;;;6206225;23;20376;-63
2022/01/30 08:23:01;;;;;;;19.02;4.07;;;8.10;91.90;;;;;;6208198;23;20087;-62
2022/01/30 08:25:26;;;;;;;16.85;4.38;;;8.10;91.90;;;;;;6209702;23;20005;-64
2022/01/30 08:27:53;;;;;;;13.00;4.38;;;8.10;91.90;;;;;;6209125;23;20347;-63
2022/01/30 08:30:18;;;;;;;8.07;4.07;;;8.10;91.90;;;;;;6204539;23;20441;-63
2022/01/30 08:32:46;;;;;;;17.08;4.13;;;8.10;91.90;;;;;;6205400;23;20032;-62
2022/01/30 08:35:12;;;;;;;11.32;3.55;;;8.10;91.90;;;;;;6206993;23;20070;-61
2022/01/30 08:37:38;;;;;;;15.10;3.90;;;8.10;91.90;;;;;;6209632;23;20178;-63
2022/01/30 08:40:09;;;;;;;10.73;3.67;;;8.10;91.90;;;;;;6208428;23;20090;-62
2022/01/30 08:42:35;;;;;;;9.20;3.63;;;8.20;92.00;;;;;;6205059;23;20462;-63
2022/01/30 08:45:01;;;;;;;16.95;3.80;;;8.20;91.90;;;;;;6179609;23;20001;-62
2022/01/30 08:47:26;;;;;;;7.50;3.38;;;8.20;91.90;;;;;;6207507;23;20026;-62
2022/01/30 08:49:52;;;;;;;11.98;2.92;;;8.20;91.90;;;;;;6207823;23;20012;-63
2022/01/30 08:52:19;;;;;;;6.45;3.05;;;8.20;91.90;;;;;;6207076;23;20009;-63
2022/01/30 08:54:45;;;;;;;8.77;3.20;;;8.20;91.90;;;;;;6181416;23;20000;-63
2022/01/30 08:57:11;;;;;;;13.95;3.40;;;8.20;92.00;;;;;;6205281;23;20013;-62
2022/01/30 08:59:36;;;;;;;8.27;3.50;;;8.20;92.00;;;;;;6206165;23;20051;-63
2022/01/30 09:02:02;;;;;;;8.23;3.33;;;8.20;92.00;;;;;;6207796;23;20108;-61
2022/01/30 09:04:27;;;;;;;7.80;3.10;;;8.20;92.00;;;;;;6206272;23;20016;-62
2022/01/30 09:06:53;;;;;;;10.27;3.35;;;8.20;92.00;;;;;;6207617;23;20134;-63
2022/01/30 09:09:18;;;;;;;8.93;3.35;;;8.30;92.10;;;;;;6206391;23;20102;-64
2022/01/30 09:11:44;;;;;;;11.80;3.47;;;8.30;92.00;;;;;;6207019;23;20119;-63
2022/01/30 09:14:10;;;;;;;9.75;3.25;;;8.30;92.00;;;;;;6208650;23;20228;-61
2022/01/30 09:16:35;;;;;;;12.57;3.88;;;8.30;92.00;;;;;;6207183;23;20370;-60
2022/01/30 09:19:01;;;;;;;17.52;3.72;;;8.30;92.00;;;;;;6180655;23;20096;-62
2022/01/30 09:21:28;;;;;;;16.25;3.90;;;8.30;92.00;;;;;;6207313;23;20015;-61
2022/01/30 09:23:54;;;;;;;36.92;5.45;;;8.40;92.10;;;;;;6206091;23;20027;-61
2022/01/30 09:26:20;;;;;;;17.88;4.70;;;8.40;92.00;;;;;;6206803;23;20012;-63
2022/01/30 09:28:45;;;;;;;23.38;4.30;;;8.40;92.10;;;;;;6207872;23;20357;-61
2022/01/30 09:31:11;;;;;;;11.80;4.10;;;8.40;92.10;;;;;;6209807;23;20008;-61
2022/01/30 09:33:36;;;;;;;25.10;3.88;;;8.40;92.00;;;;;;6209122;23;20000;-63
2022/01/30 09:36:03;;;;;;;12.23;3.90;;;8.50;92.10;;;;;;6207652;23;20001;-63
2022/01/30 09:38:29;;;;;;;31.40;4.70;;;8.50;92.10;;;;;;6207591;23;20001;-60
2022/01/30 09:40:54;;;;;;;27.08;5.28;;;8.60;92.10;;;;;;6207773;23;20001;-63
2022/01/30 09:43:21;;;;;;;29.58;5.38;;;8.60;92.10;;;;;;6183421;23;20082;-61
2022/01/30 09:45:46;;;;;;;16.58;4.15;;;8.60;92.10;;;;;;6209877;23;20015;-64
2022/01/30 09:48:12;;;;;;;33.10;4.78;;;8.60;92.20;;;;;;6206669;23;20012;-62
2022/01/30 09:50:38;;;;;;;38.72;6.18;;;8.60;92.10;;;;;;6178845;23;20565;-62
2022/01/30 09:53:03;;;;;;;51.40;5.63;;;8.60;92.10;;;;;;6157497;23;20348;-63
2022/01/30 09:55:29;;;;;;;48.10;6.90;;;8.70;92.30;;;;;;6185265;23;20001;-64
2022/01/30 09:57:54;;;;;;;44.22;6.47;;;8.70;92.30;;;;;;6239948;23;20054;-60
2022/01/30 10:00:20;;;;;;;39.08;5.65;;;8.70;92.40;;;;;;6211695;23;20004;-59
2022/01/30 10:02:45;;;;;;;60.00;6.80;;;8.70;92.30;;;;;;6237616;23;20057;-61
2022/01/30 10:05:12;;;;;;;42.45;7.13;;;8.80;92.30;;;;;;6210276;23;20004;-59
2022/01/30 10:07:57;;;;;;;100.72;10.57;;;8.80;92.30;;;;;;6239451;23;20000;-63
2022/01/30 10:10:28;;;;;;;100.00;12.00;;;8.90;92.30;;;;;;6188313;23;20392;-62
2022/01/30 10:13:03;;;;;;;115.25;13.93;;;8.90;92.20;;;;;;6189896;23;20004;-60
2022/01/30 10:15:29;;;;;;;89.95;12.85;;;8.90;92.30;;;;;;6237489;23;20016;-61
2022/01/30 10:17:54;;;;;;;77.78;8.98;;;9.00;92.30;;;;;;6185745;23;20330;-63
2022/01/30 10:20:21;;;;;;;75.20;9.50;;;9.00;92.30;;;;;;6186816;23;20071;-62
2022/01/30 10:22:51;;;;;;;68.63;10.13;;;9.00;92.30;;;;;;6187875;23;20004;-63
2022/01/30 10:25:20;;;;;;;78.18;9.27;;;9.10;92.30;;;;;;6212041;23;20004;-62
2022/01/30 10:27:46;;;;;;;80.03;10.07;;;9.10;92.30;;;;;;6236741;23;20039;-63
2022/01/30 10:30:11;;;;;;;85.20;11.75;;;9.10;92.40;;;;;;6209648;23;20008;-65
2022/01/30 10:32:37;;;;;;;76.95;8.93;;;9.10;92.30;;;;;;6210925;23;20008;-62
2022/01/30 10:35:07;;;;;;;60.45;9.00;;;9.10;92.30;;;;;;6187209;23;20066;-64
2022/01/30 10:37:33;;;;;;;79.22;8.77;;;9.20;92.30;;;;;;6186869;23;20088;-62
2022/01/30 10:40:18;;;;;;;87.30;10.30;;;9.20;92.30;;;;;;6210101;23;20054;-63
2022/01/30 10:42:48;;;;;;;83.30;9.60;;;9.20;92.30;;;;;;6210204;23;20034;-61
2022/01/30 10:45:29;;;;;;;156.07;16.27;;;9.20;92.40;;;;;;6185783;23;20027;-62
2022/01/30 10:48:28;;;;;;;128.15;14.40;;;9.30;92.40;;;;;;6238156;23;20014;-64
2022/01/30 10:50:55;;;;;;;123.35;14.80;;;9.30;92.40;;;;;;6128816;23;20461;-61
2022/01/30 10:53:22;;;;;;;130.38;14.50;;;9.30;92.40;;;;;;6207590;23;20000;-62
2022/01/30 10:55:48;;;;;;;110.82;13.38;;;9.30;92.40;;;;;;6205628;23;20021;-63
2022/01/30 10:58:21;;;;;;;122.90;12.77;;;9.30;92.40;;;;;;6205228;23;20064;-64
2022/01/30 11:00:54;;;;;;;119.88;14.60;;;9.30;92.30;;;;;;6206723;23;20029;-63
2022/01/30 11:03:39;;;;;;;105.88;13.73;;;9.40;92.40;;;;;;6181702;23;20031;-62
2022/01/30 11:06:10;;;;;;;120.32;13.25;;;9.40;92.30;;;;;;6205164;23;20051;-62
2022/01/30 11:08:39;;;;;;;112.60;14.38;;;9.40;92.30;;;;;;6203437;23;20706;-60
2022/01/30 11:11:12;;;;;;;131.10;13.02;;;9.50;92.30;;;;;;6208427;23;20363;-64
2022/01/30 11:19:08;;;;;;;123.93;14.32;;;9.50;92.30;;;;;;6185456;23;20012;-61
2022/01/30 11:21:33;;;;;;;112.63;13.75;;;9.60;92.30;;;;;;6205960;23;20013;-63
2022/01/30 11:23:59;;;;;;;104.45;14.55;;;9.60;92.20;;;;;;6180087;23;20167;-63
2022/01/30 11:26:24;;;;;;;121.70;13.35;;;9.60;92.00;;;;;;6183390;23;20056;-61
2022/01/30 11:28:50;;;;;;;145.98;15.20;;;9.60;91.90;;;;;;6182532;23;20389;-63
2022/01/30 11:31:16;;;;;;;135.40;17.45;;;9.70;92.10;;;;;;6207507;23;20004;-64
2022/01/30 11:33:43;;;;;;;176.90;16.05;;;9.70;92.10;;;;;;6206032;23;20617;-61
2022/01/30 11:36:09;;;;;;;120.10;13.75;;;9.70;92.20;;;;;;6181315;23;20004;-61
2022/01/30 11:38:36;;;;;;;137.82;14.32;;;9.70;92.10;;;;;;6207224;23;20076;-62
2022/01/30 11:41:18;;;;;;;129.40;13.50;;;9.70;92.10;;;;;;6183356;23;20024;-64
2022/01/30 11:44:19;;;;;;;117.07;14.07;;;9.80;92.10;;;;;;6182656;23;20032;-63
2022/01/30 11:46:57;;;;;;;155.95;15.48;;;9.80;92.00;;;;;;6207338;23;20422;-63
2022/01/30 11:49:24;;;;;;;139.98;15.02;;;9.80;92.20;;;;;;6207589;23;20001;-64
2022/01/30 11:51:51;;;;;;;113.80;14.35;;;9.80;92.10;;;;;;6207547;23;20097;-62
2022/01/30 11:54:38;;;;;;;107.35;13.85;;;9.90;92.10;;;;;;6205138;23;20417;-61
2022/01/30 11:57:29;;;;;;;101.57;14.05;;;9.90;92.10;;;;;;6231098;23;20096;-62
2022/01/30 11:59:56;;;;;;;87.35;13.38;;;10.00;92.20;;;;;;6215725;23;20015;-63
2022/01/30 12:02:30;;;;;;;114.72;12.88;;;9.90;92.20;;;;;;6185146;23;20094;-61
2022/01/30 12:04:57;;;;;;;126.38;13.43;;;10.00;92.30;;;;;;6185886;23;20000;-61
2022/01/30 12:07:38;;;;;;;130.43;14.38;;;10.00;92.40;;;;;;6209492;23;20000;-60
2022/01/30 12:10:15;;;;;;;79.85;12.15;;;10.00;92.30;;;;;;6239363;23;20557;-62
2022/01/30 12:13:01;;;;;;;115.53;14.77;;;10.10;92.20;;;;;;6236721;23;20275;-61
2022/01/30 12:15:43;;;;;;;114.05;12.93;;;10.10;92.30;;;;;;6187736;23;20323;-62
2022/01/30 12:18:17;;;;;;;132.00;13.95;;;10.10;92.30;;;;;;6186628;23;20079;-60
2022/01/30 12:21:00;;;;;;;118.85;13.48;;;10.20;92.30;;;;;;6187241;23;20078;-61
2022/01/30 12:23:30;;;;;;;127.45;13.50;;;10.20;92.20;;;;;;6212051;23;20000;-59
2022/01/30 12:26:04;;;;;;;95.70;12.07;;;10.20;92.20;;;;;;6234854;23;20015;-60
2022/01/30 12:28:52;;;;;;;96.10;11.35;;;10.30;92.10;;;;;;6187588;23;20000;-59
2022/01/30 12:31:38;;;;;;;97.57;13.32;;;10.30;92.00;;;;;;6209518;23;20000;-60
2022/01/30 12:34:04;;;;;;;112.95;15.68;;;10.30;91.80;;;;;;6211501;23;20009;-60
2022/01/30 12:36:39;;;;;;;101.68;13.68;;;10.30;91.90;;;;;;6238678;23;20192;-61
2022/01/30 12:39:11;;;;;;;117.13;13.95;;;10.30;92.00;;;;;;6208003;23;20012;-63
2022/01/30 12:41:37;;;;;;;107.05;12.73;;;10.40;92.00;;;;;;6186399;23;20024;-64
2022/01/30 12:44:04;;;;;;;93.97;12.75;;;10.40;91.90;;;;;;6211625;23;20548;-59
2022/01/30 12:46:33;;;;;;;99.93;13.07;;;10.40;91.90;;;;;;6213065;23;20015;-61
2022/01/30 12:49:06;;;;;;;113.72;13.40;;;10.40;91.70;;;;;;6159647;23;20019;-61
2022/01/30 12:51:33;;;;;;;111.03;13.85;;;10.50;91.80;;;;;;6187172;23;20046;-60
2022/01/30 12:53:59;;;;;;;112.90;15.40;;;10.50;91.70;;;;;;6182321;23;20004;-64
2022/01/30 12:56:25;;;;;;;118.80;13.70;;;10.50;91.70;;;;;;6238640;23;20091;-62
2022/01/30 12:58:54;;;;;;;104.30;12.02;;;10.50;91.70;;;;;;6185914;23;20072;-63
2022/01/30 13:01:24;;;;;;;103.45;12.80;;;10.50;91.60;;;;;;6238024;23;20429;-61
2022/01/30 13:04:00;;;;;;;120.18;14.07;;;10.60;91.50;;;;;;6209853;23;20567;-64
2022/01/30 13:06:33;;;;;;;119.28;14.63;;;10.60;91.40;;;;;;6210680;23;20027;-62
2022/01/30 13:08:58;;;;;;;115.40;15.75;;;10.60;91.30;;;;;;6207172;23;20015;-61
2022/01/30 13:11:24;;;;;;;148.25;14.57;;;10.60;91.30;;;;;;6211148;23;20080;-61
2022/01/30 13:13:55;;;;;;;111.78;13.57;;;10.70;91.50;;;;;;6210882;23;20152;-60
2022/01/30 13:16:29;;;;;;;113.60;15.00;;;10.70;91.10;;;;;;6235546;23;20024;-61
2022/01/30 13:18:55;;;;;;;109.95;13.98;;;10.70;91.10;;;;;;6207182;23;20093;-63
2022/01/30 13:21:22;;;;;;;103.35;13.68;;;10.70;91.10;;;;;;6209038;23;20001;-63
2022/01/30 13:23:48;;;;;;;113.97;15.35;;;10.70;91.10;;;;;;6185357;23;20372;-61
2022/01/30 13:26:36;;;;;;;100.82;13.43;;;10.70;91.20;;;;;;6213718;23;19996;-61
2022/01/30 13:29:08;;;;;;;148.65;17.75;;;10.80;91.30;;;;;;6209717;23;20086;-63
2022/01/30 13:31:35;;;;;;;207.05;20.38;;;10.80;91.30;;;;;;6185066;23;20022;-61
2022/01/30 13:34:22;;;;;;;156.43;18.73;;;10.80;91.30;;;;;;6235545;23;20291;-63
2022/01/30 13:36:54;;;;;;;252.63;28.05;;;10.80;91.20;;;;;;6237984;23;20084;-60
2022/01/30 13:42:37;;;;;;;153.77;16.70;;;10.90;91.20;;;;;;6214724;23;20024;-63
2022/01/30 13:48:05;;;;;;;158.75;15.70;;;11.00;91.20;;;;;;6236629;23;20012;-62